Detall de PIREP

Printer-friendly versionPDF version

[2012/12/08 09:30:00]
Flight IATA:CT3302
Pilot Number:012
Company ICAO:CAT
Aircraft Type:B738/F
PAX:160
Departing Airport: LEZG
Destination Airport: DTTA
Alternate Airport:DABB
Online: VATSIM
Route:PONEN UN870 BCN UN859 GENIO UM134 ANB UA411 MORJA UM978 KEMIR
Flight Level:F370
No Slew and time accel
No pause
Crash detect
Detect pilot in Cockpit between each 30 and 45 minutes
09:30 Zero fuel Weight: 123808 Lbs, Fuel Weight: 15630 Lbs
09:30 VATSIM:LEZG 080900Z 28016KT 9999 FEW035 08/03 Q1022
09:30 VATSIM:DTTA 080900Z 31016G29KT 280V340 7000 -RA FEW020 SCT030 BKN090 12/09 Q1011 NOSIG
09:31 VOICE CATALONIAN
09:33 Parking Brakes off
09:38 Take-off
09:38 Take off Weight: 138900 Lbs
09:38 Wind: 283º @ 016 Knots Heading: 298º
09:38 POS N41º 39´ 49´´ W001º 01´ 40´´
09:38 Gear Up: 171 Knots
09:38 Flaps:3 at 171 Knots
09:38 Flaps:2 at 156 Knots
09:38 Flaps:3 at 130 Knots
09:39 Flaps:2 at 161 Knots
09:39 Flaps:1 at 198 Knots
09:39 Flaps:0 at 201 Knots
09:53 Wind:317º@058 Knots Heading: 085º Ground Speed: 505 Knots Altitude 30629 ft
09:58 TOC
09:58 Fuel Weight: 11060 Lb
10:08 Wind:299º@066 Knots Heading: 171º Ground Speed: 497 Knots Altitude 37080 ft
10:23 Wind:301º@069 Knots Heading: 171º Ground Speed: 501 Knots Altitude 37125 ft
10:38 Wind:291º@065 Knots Heading: 110º Ground Speed: 520 Knots Altitude 37060 ft
10:52 TOD
10:52 Fuel Weight: 6359 Lb
10:53 Wind:292º@067 Knots Heading: 087º Ground Speed: 502 Knots Altitude 34809 ft
11:08 Wind:295º@037 Knots Heading: 005º Ground Speed: 273 Knots Altitude 9757 ft
11:08 Flaps:1 at 245 Knots
11:14 Flaps:2 at 200 Knots
11:14 Flaps:3 at 192 Knots
11:14 Flaps:4 at 180 Knots
11:15 Flaps:5 at 174 Knots
11:16 Gear Down: 175 Knots
11:17 Flaps:6 at 169 Knots
11:18 Flaps:7 at 151 Knots
11:18 Flaps:8 at 144 Knots
11:21 TouchDown:Rate -231 ft/min Speed: 124 Knots
11:21 VATSIM:DTTA 081100Z 24008KT 8000 -RA FEW020 SCT030 BKN090 10/06 Q1012 NOSIG
11:21 Land
11:21 Wind:310º@014 Knots
11:21 Heading: 290º
11:21 Flight Duration: 01:43
11:21 Landing Weight: 128446 Lbs
11:21 POS N36º 51´ 04´´ E010º 13´ 42´´
11:25 Parking brakes on
11:25 Block to Block Duration: 01:52
11:25 Final Fuel: 4367 Lbls
11:25 Spent Fuel: 11263 Lbls
11:25 Flight Length: 758 NM
11:25 TOD Land Length: 157 NM

Exportar CSV

Powered by Drupal - Modified by Danger4k